Obihiro Airport
RJCB : now visible

Airfield :











YOU CAN JOIN US ON...

 
LOGIN :

Register | Disclaimer

   EN    FR    IT 

 









Legend :    VFR   Marginal VFR   IFR   Intensive IFR   Very Intensive IFR
Visi :
Ceiling :
>= 8 km
>= 3000ft
5 to 8 km
1000 to 3000 ft
1500m to 5 km
500 to 1000 ft
800 to 1500m
200 to 500 ft
< 800m
< 200 ft
Symbols :   Thunderstorms  Fog  Heavy snow  Heavy precipitations  Wind > 20 kt






- Airport Elevation : 505 ft
- IATA code : OBO


RJCB - Obihiro

EXPIRED METARs :
  • 171100Z 34012KT 9999 FEW040 M01/M06 Q1019
  • 171000Z 35016KT 9999 FEW040 M00/M07 Q1018

TAF TAF RJCB
Valid from the 17 at 12:00 until the 18 at 18:00 UTC


171108Z 1712/1818 34010KT 9999 FEW040
BECMG 1800/1803 15006KT
TEMPO 1803/1806 3000 -SHSNRA FEW005 BKN008
TEMPO 1806/1809 2000 SHRA BR FEW002 BKN004
BECMG 1806/1809 32005KT
TEMPO 1809/1815 1500 -SHRA BR FEW002 BKN004



MET'MAP, your aeronautical weather chart ! - Copyright ORBIFLY December 2007 - Disclaimer

ORBIFLY MET'MAP TEAM :

Programming & Development : Alexandra Zaïnal
Concept & Development : Baudouin d'Aumeries
Co-Development & Prog : Marc-Olivier Méhu
Technical & hardware support : Manuel Goepfert

Contact : metmap@orbifly.com




SOURCES & CREDITS :

   NOAA       Earth
Advisory